map of RYK home
Great Circle Mapper logo
RYK - Airport
Location
City:  Rahim Yar Khan, Pakistan
Name:Shaikh Zayed
ICAO / IATA:OPRK / RYK

Details
Type:Airport (Aerodrome, Airfield)
Latitude:2823'02"N (28.383900)
Longitude:7016'46"E (70.279572)
Datum:WGS 1984
Elevation:271 ft (83 m)
Runways:1
Longest:9842 × 148 ft (3000 × 45 m), paved

Time
Time Zone:UTC+5
Local Time:

Weather
TAF:OPRK 272300Z 2718/2812 05010KT 4000 FU SCT040 SCT120 TN28/2800Z TX38/2810Z PROB30
TEMPO 2809/2812 36020KT 2000 TSDZ FEW030CB SCT040 BKN100

Related Locations
Nearby:
Farthest:IPC: 12344 mi / 19867 km
Easter Island (Isla de Pascua, Rapa Nui) [Mataveri Intl], VS, CL

Find:

   beyond  
but within

Other Information
Maps:
NOTAMs:
Links:
Sources:

  
flag of Pakistan   

Sectional Chart

Flight Planning
at skyvector.com

Satellite Image

Google Maps Satellite View

 

Copyright © 2004-2014 Karl L. Swartz. All rights reserved.
The Great Circle Mapper name and logo are trademarks of the Great Circle Mapper.
All other trademarks mentioned herein belong to their respective owners.
Please see credits for attibutions and further copyright information.

  Follow gcmap on Facebook Follow gcmap on Twitter

hCard Microformat

Geo Microformat